Latest Weather Observations for Dalby

IDQ60801

Issued at 9:02 am EST Wednesday 28 January 2015 (issued every 30 minutes, with the page automatically refreshed every 10 minutes)

About weather observations | Map of weather stations | Latest weather observations for QLD | Other Formats
Station Details ID: 041522 Name: DALBY AIRPORT Lat: -27.16 Lon: 151.26 Height: 343.9 m
Data from the previous 72 hours. | See also: Recent months at Dalby
Date/Time
EST
Temp
°C
App
Temp
°C
Dew
Point
Rel
Hum
%
Delta-T
°C
Wind Press
QNH
hPa
Press
MSL
hPa
Rain
since 9 am
mm
Dir
 
Spd
km/h
Gust
km/h
Spd
kts
Gust
kts
28/09:00am 20.7 19.3 17.1 80 2.2 ESE 20 28 11 15 1007.4 1005.3 21.8
28/08:30am 20.7 19.9 17.9 84 1.8 E 19 22 10 12 1007.0 1004.8 21.8
28/08:00am 19.2 17.9 16.8 86 1.5 ENE 19 24 10 13 1006.6 1004.4 21.8
28/07:30am 18.7 16.6 16.3 86 1.5 ENE 22 32 12 17 1006.0 1003.8 21.8
28/07:00am 18.6 17.1 16.4 87 1.3 ENE 19 26 10 14 1006.3 1004.1 21.8
28/06:30am 18.4 17.8 16.6 89 1.1 E 15 24 8 13 1006.0 1003.8 21.8
28/06:00am 17.8 18.4 16.7 93 0.7 SE 9 13 5 7 1006.3 1004.1 21.8
28/05:30am 17.7 17.8 16.4 92 0.8 ESE 11 15 6 8 1006.2 1004.0 21.6
28/05:00am 17.6 15.5 16.3 92 0.8 ESE 22 28 12 15 1006.0 1003.8 21.4
28/04:30am 17.4 15.0 16.3 93 0.7 SE 24 30 13 16 1006.0 1003.8 21.0
28/04:00am 17.5 15.5 16.4 93 0.7 SE 22 28 12 15 1006.2 1004.0 19.0
28/03:30am 18.5 16.3 17.0 91 0.9 SE 24 35 13 19 1005.5 1003.4 14.6
28/03:00am 20.5 21.5 18.6 89 1.2 ESE 11 15 6 8 1005.4 1003.3 13.0
28/02:30am 20.3 21.6 18.4 89 1.2 ENE 9 13 5 7 1005.4 1003.3 13.0
28/02:00am 20.2 21.1 18.5 90 1.1 NE 11 13 6 7 1005.7 1003.5 13.0
28/01:30am 20.3 21.3 18.6 90 1.1 ENE 11 13 6 7 1006.0 1003.8 13.0
28/01:00am 20.7 20.5 18.6 88 1.3 NE 17 20 9 11 1006.3 1004.1 12.2
28/12:30am 20.9 23.0 19.4 91 1.0 ESE 7 11 4 6 1006.4 1004.2 11.8
28/12:00am 20.9 21.9 19.4 91 1.0 NE 13 20 7 11 1006.4 1004.2 11.8
 
Date/Time
EST
Temp
°C
App
Temp
°C
Dew
Point
Rel
Hum
%
Delta-T
°C
Wind Press
QNH
hPa
Press
MSL
hPa
Rain
since 9 am
mm
Dir
 
Spd
km/h
Gust
km/h
Spd
kts
Gust
kts
27/11:30pm 21.1 21.0 19.6 91 1.0 NE 19 24 10 13 1006.4 1004.2 11.6
27/11:00pm 21.3 20.6 19.6 90 1.1 NE 22 32 12 17 1006.9 1004.7 11.2
27/10:30pm 21.3 21.0 19.6 90 1.1 NE 20 30 11 16 1007.3 1005.2 9.0
27/10:00pm 21.5 21.3 19.8 90 1.1 ENE 20 28 11 15 1007.0 1004.8 7.4
27/09:30pm 21.8 23.4 19.9 89 1.2 ESE 11 17 6 9 1007.6 1005.5 6.4
27/09:00pm 21.8 22.6 19.9 89 1.2 ESE 15 19 8 10 1007.2 1005.1 5.6
27/08:30pm 22.1 22.5 19.8 87 1.5 E 17 22 9 12 1007.1 1004.9 4.2
27/08:00pm 22.4 22.5 19.9 86 1.6 E 19 26 10 14 1006.6 1004.4 2.8
27/07:30pm 22.9 23.5 20.2 85 1.8 E 17 22 9 12 1006.3 1004.1 1.6
27/07:00pm 23.1 24.0 20.1 83 2.0 NE 15 19 8 10 1005.8 1003.6 1.4
27/06:30pm 24.5 25.2 19.6 74 3.2 ENE 15 19 8 10 1005.0 1002.9 0.4
27/06:00pm 25.1 24.7 18.8 68 4.1 ENE 19 24 10 13 1004.4 1002.2 0.4
27/05:30pm 26.9 26.4 17.9 57 5.8 ENE 17 22 9 12 1003.9 1001.7 0.2
27/05:00pm 26.7 30.3 19.8 66 4.6 CALM 0 0 0 0 1003.9 1001.7 0.2
27/04:30pm 27.8 27.0 17.9 54 6.4 NE 19 26 10 14 1003.8 1001.6 0.2
27/04:00pm 29.1 26.8 16.6 46 7.9 NE 24 30 13 16 1003.5 1001.3 0.2
27/03:30pm 29.6 27.6 16.4 45 8.3 ENE 22 28 12 15 1003.6 1001.4 0.2
27/03:00pm 29.7 28.1 16.1 43 8.6 NE 19 26 10 14 1003.8 1001.6 0.2
27/02:30pm 30.3 28.5 14.4 38 9.8 NNE 17 24 9 13 1004.1 1001.9 0.2
27/02:00pm 30.7 29.2 16.3 42 9.2 NNE 19 26 10 14 1004.7 1002.6 0.2
27/01:30pm 31.1 29.8 15.9 40 9.6 NE 17 30 9 16 1005.4 1003.3 0.2
27/01:00pm 29.5 27.9 16.0 44 8.5 NE 19 28 10 15 1006.2 1004.0 0.2
27/12:30pm 29.3 27.7 16.1 44 8.3 ENE 19 30 10 16 1006.6 1004.4 0.2
27/12:00pm 29.4 28.1 17.2 47 7.8 ENE 20 30 11 16 1007.0 1004.8 0.2
27/11:30am 29.4 29.0 19.4 55 6.6 ENE 20 32 11 17 1007.6 1005.5 0.2
27/11:00am 29.1 28.1 19.7 57 6.2 E 24 35 13 19 1007.8 1005.7 0.2
27/10:30am 27.9 26.3 18.3 56 6.2 ENE 24 33 13 18 1008.3 1006.2 0.2
27/10:00am 27.5 26.6 19.0 59 5.6 ENE 22 33 12 18 1008.7 1006.5 0.2
27/09:30am 27.0 25.0 19.1 62 5.2 ENE 28 35 15 19 1008.8 1006.6 0.0
27/09:00am 26.2 25.2 19.6 67 4.3 ENE 24 32 13 17 1008.8 1006.6 4.2
27/08:30am 26.3 25.3 20.4 70 3.9 ENE 26 35 14 19 1008.5 1006.4 4.2
27/08:00am 25.1 24.9 20.6 76 3.0 E 22 28 12 15 1008.3 1006.2 4.2
27/07:30am 23.9 23.8 20.0 79 2.6 E 20 30 11 16 1008.0 1005.9 4.2
27/07:00am 24.3 25.3 20.2 78 2.7 ESE 15 20 8 11 1008.1 1006.0 4.2
27/06:30am 23.1 23.9 19.9 82 2.1 E 15 20 8 11 1007.7 1005.6 4.2
27/06:00am 21.8 23.1 19.4 86 1.6 E 11 13 6 7 1007.9 1005.8 4.2
27/05:30am 21.7 22.7 19.4 87 1.5 E 13 17 7 9 1007.7 1005.6 4.2
27/05:00am 21.8 22.8 19.4 86 1.6 E 13 15 7 8 1007.5 1005.4 4.2
27/04:30am 21.9 22.8 19.3 85 1.7 E 13 15 7 8 1007.3 1005.2 4.2
27/04:00am 22.0 22.6 19.4 85 1.7 E 15 20 8 11 1006.7 1004.5 4.2
27/03:30am 22.3 23.0 19.7 85 1.7 E 15 20 8 11 1006.7 1004.5 4.2
27/03:00am 22.3 23.0 19.7 85 1.7 E 15 20 8 11 1006.7 1004.5 4.2
27/02:30am 22.4 22.8 19.8 85 1.7 ESE 17 20 9 11 1006.5 1004.3 4.2
27/02:00am 22.5 22.4 19.9 85 1.7 ESE 20 26 11 14 1006.4 1004.2 4.2
27/01:30am 22.5 23.5 20.2 87 1.5 SE 15 20 8 11 1006.7 1004.5 4.2
27/01:00am 22.8 23.8 20.3 86 1.6 E 15 19 8 10 1007.0 1004.8 4.2
27/12:30am 22.9 24.3 20.4 86 1.6 ESE 13 17 7 9 1007.6 1005.5 4.2
27/12:00am 22.9 22.9 20.2 85 1.8 E 20 30 11 16 1007.9 1005.8 4.2
 
Date/Time
EST
Temp
°C
App
Temp
°C
Dew
Point
Rel
Hum
%
Delta-T
°C
Wind Press
QNH
hPa
Press
MSL
hPa
Rain
since 9 am
mm
Dir
 
Spd
km/h
Gust
km/h
Spd
kts
Gust
kts
26/11:30pm 23.1 22.5 20.4 85 1.8 E 24 32 13 17 1008.0 1005.9 4.2
26/11:19pm 23.2 21.8 20.5 85 1.8 ESE 28 33 15 18 1008.3 1006.2 4.2
26/11:00pm 24.0 26.4 21.5 86 1.7 SE 11 15 6 8 1009.3 1007.1 4.2
26/10:30pm 24.0 26.4 21.5 86 1.7 S 11 17 6 9 1009.3 1007.1 4.2
26/10:00pm 23.7 24.9 21.4 87 1.5 ENE 17 24 9 13 1008.4 1006.3 4.2
26/09:30pm 23.4 23.6 21.3 88 1.4 ESE 22 30 12 16 1008.2 1006.1 4.2
26/09:00pm 23.9 24.2 21.6 87 1.5 SE 22 32 12 17 1008.4 1006.3 4.0
26/08:30pm 24.1 24.0 21.4 85 1.8 ESE 24 32 13 17 1008.0 1005.9 4.0
26/08:00pm 23.9 23.5 21.6 87 1.5 N 26 32 14 17 1007.8 1005.7 3.8
26/07:30pm 24.5 23.0 21.8 85 1.8 NE 32 46 17 25 1007.0 1004.8 3.2
26/07:00pm 24.2 22.6 21.9 87 1.6 ENE 33 43 18 23 1006.3 1004.1 3.2
26/06:30pm 23.7 21.5 20.8 84 1.9 E 33 43 18 23 1007.2 1005.1 3.0
26/06:00pm 22.5 18.0 19.9 85 1.7 E 43 50 23 27 1006.5 1004.3 2.6
26/05:50pm 22.3 18.5 19.8 86 1.6 ESE 39 50 21 27 1007.1 1004.9 2.4
26/05:30pm 21.6 17.8 19.7 89 1.2 SE 39 54 21 29 1007.1 1004.9 0.6
26/05:07pm 25.9 22.6 17.0 58 5.6 ESE 30 72 16 39 1006.3 1004.1 0.0
26/05:06pm 27.1 24.7 17.3 55 6.2 ESE 26 52 14 28 1006.2 1004.0 0.0
26/05:00pm 28.3 25.3 16.9 50 7.3 ENE 28 37 15 20 1005.1 1003.0 0.0
26/04:30pm 28.2 24.0 17.1 51 7.1 ENE 35 46 19 25 1004.3 1002.1 0.0
26/04:23pm 27.8 22.9 17.3 52 6.7 NE 39 57 21 31 1004.4 1002.2 0.0
26/04:00pm 30.2 24.0 17.3 46 8.3 NE 46 63 25 34 1003.7 1001.5 0.0
26/03:32pm 33.9 29.5 17.6 38 10.6 ENE 37 56 20 30 1003.9 1001.7 0.0
26/03:30pm 34.0 28.7 17.2 36 10.9 ENE 41 57 22 31 1003.9 1001.7 0.0
26/03:21pm 34.7 30.8 16.5 33 11.7 ENE 32 57 17 31 1003.4 1001.2 0.0
26/03:00pm 35.2 32.4 17.4 34 11.7 ENE 28 37 15 20 1003.7 1001.5 0.0
26/02:30pm 34.7 31.2 17.4 35 11.3 E 32 43 17 23 1004.0 1001.8 0.0
26/02:00pm 34.4 33.2 17.6 37 11.0 ENE 20 37 11 20 1004.0 1001.8 0.0
26/01:30pm 35.5 34.8 14.2 28 13.3 E 11 19 6 10 1004.4 1002.2 0.0
26/01:00pm 34.2 32.5 14.7 31 12.3 SE 17 30 9 16 1004.9 1002.8 0.0
26/12:30pm 34.9 34.9 15.3 31 12.4 SSW 9 19 5 10 1005.5 1003.4 0.0
26/12:00pm 34.9 35.8 17.6 35 11.3 WNW 9 15 5 8 1006.0 1003.8 0.0
26/11:30am 32.9 33.4 17.5 39 10.0 SSE 11 19 6 10 1006.4 1004.2 0.0
26/11:00am 33.3 33.6 17.9 40 10.1 S 13 17 7 9 1006.7 1004.5 0.0
26/10:30am 33.8 35.3 19.8 43 9.4 SW 11 20 6 11 1007.1 1004.9 0.0
26/10:00am 32.8 34.2 18.6 43 9.4 W 9 22 5 12 1007.3 1005.2 0.0
26/09:30am 32.7 36.3 20.6 49 8.2 W 2 9 1 5 1007.5 1005.4 0.0
26/09:00am 30.8 32.6 18.8 48 7.9 SSW 7 13 4 7 1007.7 1005.6 0.0
26/08:30am 30.4 32.5 19.4 51 7.3 ENE 7 11 4 6 1007.9 1005.8 0.0
26/08:00am 29.2 31.5 19.8 57 6.2 E 7 13 4 7 1007.8 1005.7 0.0
26/07:30am 28.2 30.8 22.0 69 4.2 E 11 15 6 8 1007.9 1005.8 0.0
26/07:00am 26.7 28.9 21.2 72 3.7 ESE 11 15 6 8 1007.9 1005.8 0.0
26/06:30am 25.3 28.3 21.2 78 2.7 SE 7 11 4 6 1007.8 1005.7 0.0
26/06:00am 24.2 26.9 21.3 84 1.9 SSE 9 11 5 6 1007.6 1005.5 0.0
26/05:30am 22.8 26.7 20.3 86 1.6 CALM 0 0 0 0 1007.0 1004.8 0.0
26/05:00am 22.1 24.1 19.1 83 1.9 NE 7 9 4 5 1006.5 1004.3 0.0
26/04:30am 22.8 24.6 19.6 82 2.1 NE 9 9 5 5 1006.3 1004.1 0.0
26/04:00am 22.6 24.0 19.6 83 1.9 E 11 13 6 7 1006.2 1004.0 0.0
26/03:30am 23.6 25.3 20.1 81 2.3 ESE 11 13 6 7 1006.3 1004.1 0.0
26/03:00am 23.6 26.0 20.1 81 2.3 ESE 7 13 4 7 1006.3 1004.1 0.0
26/02:30am 24.8 26.3 20.5 77 2.8 N 13 15 7 8 1006.0 1003.8 0.0
26/02:00am 24.0 25.5 19.7 77 2.8 N 11 13 6 7 1006.1 1003.9 0.0
26/01:30am 24.1 25.6 19.8 77 2.8 ESE 11 13 6 7 1006.3 1004.1 0.0
26/01:00am 24.6 25.9 19.2 72 3.5 ESE 11 15 6 8 1006.6 1004.4 0.0
26/12:30am 24.3 26.2 18.9 72 3.5 NNE 7 9 4 5 1006.6 1004.4 0.0
26/12:00am 24.5 26.6 18.9 71 3.6 NNE 6 7 3 4 1006.6 1004.4 0.0
 
Date/Time
EST
Temp
°C
App
Temp
°C
Dew
Point
Rel
Hum
%
Delta-T
°C
Wind Press
QNH
hPa
Press
MSL
hPa
Rain
since 9 am
mm
Dir
 
Spd
km/h
Gust
km/h
Spd
kts
Gust
kts
25/11:30pm 24.4 25.6 18.3 69 3.9 NE 9 13 5 7 1006.6 1004.4 0.0
25/11:00pm 24.8 25.8 17.8 65 4.5 ENE 9 13 5 7 1006.4 1004.2 0.0
25/10:30pm 25.3 25.5 17.7 62 4.8 ENE 13 15 7 8 1006.5 1004.3 0.0
25/10:00pm 25.6 27.1 18.0 63 4.9 ENE 7 11 4 6 1006.2 1004.0 0.0
25/09:30pm 25.7 26.4 17.9 62 5.0 ENE 11 13 6 7 1006.2 1004.0 0.0
25/09:00pm 26.8 27.4 17.6 57 5.9 E 11 13 6 7 1006.3 1004.1 0.0
25/08:30pm 27.8 28.1 17.0 51 6.8 ESE 11 11 6 6 1006.1 1003.9 0.0
25/08:00pm 29.0 28.7 16.5 46 7.9 ESE 13 15 7 8 1005.8 1003.6 0.0
25/07:30pm 30.3 29.9 16.3 42 8.9 ESE 13 15 7 8 1005.3 1003.2 0.0
25/07:00pm 31.3 30.6 15.3 38 10.0 ESE 13 17 7 9 1005.0 1002.9 0.0
25/06:30pm 33.2 32.7 14.8 33 11.5 SSE 11 15 6 8 1004.6 1002.5 0.0
25/06:00pm 33.6 33.2 15.1 33 11.7 SSE 11 17 6 9 1004.4 1002.2 0.0
25/05:30pm 34.8 34.0 15.2 31 12.4 S 13 17 7 9 1004.0 1001.8 0.0
25/05:00pm 35.3 35.4 15.6 31 12.6 SW 9 17 5 9 1003.5 1001.3 0.0
25/04:30pm 35.1 34.0 14.4 29 13.0 SW 13 24 7 13 1003.8 1001.6 0.0
25/04:00pm 35.7 34.4 14.9 29 13.2 WSW 15 22 8 12 1004.1 1001.9 0.0
25/03:30pm 35.2 34.4 15.0 30 12.8 SW 13 26 7 14 1004.4 1002.2 0.0
25/03:00pm 34.3 32.6 14.7 30 12.3 SSW 17 26 9 14 1004.6 1002.5 0.0
25/02:30pm 35.1 34.2 14.9 29 12.7 WSW 13 22 7 12 1004.8 1002.7 0.0
25/02:00pm 35.2 33.6 16.0 31 12.3 WSW 19 28 10 15 1005.0 1002.9 0.0
25/01:30pm 34.0 32.4 15.9 33 11.5 SW 19 26 10 14 1005.2 1003.1 0.0
25/01:00pm 34.4 34.3 18.8 39 10.4 WNW 17 30 9 16 1005.4 1003.3 0.0
25/12:30pm 33.8 32.9 18.3 39 10.2 WNW 20 30 11 16 1005.9 1003.7 0.0
25/12:00pm 33.5 32.5 18.0 39 10.2 W 20 28 11 15 1006.2 1004.0 0.0
25/11:30am 32.7 32.1 18.8 43 9.2 W 20 32 11 17 1006.6 1004.4 0.0
25/11:00am 32.0 30.4 17.5 42 9.4 WNW 22 33 12 18 1006.8 1004.6 0.0
25/10:30am 31.8 31.9 20.4 51 7.7 WNW 20 32 11 17 1007.1 1004.9 0.0
25/10:00am 31.3 32.0 21.2 55 6.9 WNW 19 28 10 15 1007.5 1005.4 0.0
25/09:30am 30.2 31.0 21.8 60 5.7 WNW 20 30 11 16 1007.7 1005.6 0.0

Other Formats:

Comma delimited format used in spreadsheet applications
http://www.bom.gov.au/fwo/IDQ60801/IDQ60801.94542.axf

JavaScript Object Notation format (JSON) in row-major order
http://www.bom.gov.au/fwo/IDQ60801/IDQ60801.94542.json